CPX31 Details

Departure: Tokyo-Narita International Airport (RJAA)
Arrival: Ted Stevens Anchorage International Airport (PANC) at N/A
Route: CUPID Y808 ALLEN Y812 SCORE R591 EHM R591 HAMND NEELL6
Notes:


Current Weather Information
RJAA 251100Z 18004KT 9999 FEW025 FEW030CB BKN/// 23/18 Q1011 NOSIG RMK 1CU025 1CB030 A2986 LIGHTNING 60KM N MOV E
PANC 251055Z 16005KT 3SM FU OVC080 13/08 A2985 RMK AO2 T01280083